createdAt,value
2018-03-01T00:00:08.333Z,10.10
2018-03-01T00:02:36.904Z,14.63
2018-03-01T00:05:04.403Z,12.60
2018-03-01T00:07:32.229Z,8.37
2018-03-01T00:10:00.211Z,9.03
2018-03-01T00:12:27.896Z,14.63
2018-03-01T00:14:55.459Z,8.63
2018-03-01T00:17:22.945Z,8.83
2018-03-01T00:19:50.649Z,10.43
2018-03-01T00:22:18.103Z,10.07
2018-03-01T00:24:45.810Z,8.73
2018-03-01T00:27:14.048Z,13.77
2018-03-01T00:29:41.654Z,8.10
2018-03-01T00:32:09.270Z,10.10
2018-03-01T00:34:36.936Z,10.00
2018-03-01T00:37:05.612Z,12.10
2018-03-01T00:39:33.304Z,7.60
2018-03-01T00:42:00.878Z,8.03
2018-03-01T00:44:29.495Z,8.43
2018-03-01T00:46:57.048Z,8.03
2018-03-01T00:49:24.637Z,12.53
2018-03-01T00:51:52.512Z,7.33
2018-03-01T00:54:21.182Z,7.67
2018-03-01T00:56:49.051Z,7.63
2018-03-01T00:59:16.720Z,8.63
2018-03-01T01:01:44.170Z,8.80
2018-03-01T01:04:11.627Z,8.70
2018-03-01T01:06:39.176Z,7.60
2018-03-01T01:09:07.274Z,7.70
2018-03-01T01:11:34.882Z,6.93
2018-03-01T01:14:03.306Z,7.50
2018-03-01T01:16:30.986Z,13.63
2018-03-01T01:18:59.000Z,10.00
2018-03-01T01:21:27.025Z,7.67
2018-03-01T01:23:55.322Z,11.20
2018-03-01T01:26:23.778Z,17.37
2018-03-01T01:28:51.752Z,12.13
2018-03-01T01:31:19.737Z,11.27
2018-03-01T01:33:47.693Z,12.93
2018-03-01T01:36:16.173Z,11.03
2018-03-01T01:38:43.956Z,9.53
2018-03-01T01:41:11.807Z,18.47
2018-03-01T01:43:39.782Z,9.33
2018-03-01T01:46:08.642Z,11.93
2018-03-01T01:48:37.141Z,13.53
2018-03-01T01:51:05.706Z,10.67
2018-03-01T01:53:33.574Z,10.13
2018-03-01T01:56:01.253Z,10.00
2018-03-01T01:58:28.871Z,12.70
2018-03-01T02:00:56.994Z,9.70
2018-03-01T02:03:24.533Z,9.87
2018-03-01T02:05:53.331Z,11.33
2018-03-01T02:08:21.232Z,13.57
2018-03-01T02:10:49.042Z,10.20
2018-03-01T02:13:16.773Z,9.47
2018-03-01T02:15:44.512Z,9.97
2018-03-01T02:18:12.192Z,12.00
2018-03-01T02:20:39.933Z,11.90
2018-03-01T02:23:07.724Z,9.23
2018-03-01T02:25:35.646Z,10.43
2018-03-01T02:28:04.266Z,10.83
2018-03-01T02:30:32.858Z,11.23
2018-03-01T02:33:01.039Z,10.23
2018-03-01T02:35:29.948Z,9.87
2018-03-01T02:37:58.379Z,9.83
2018-03-01T02:40:26.362Z,10.30
2018-03-01T02:42:54.470Z,9.33
2018-03-01T02:45:22.525Z,9.13
2018-03-01T02:47:51.117Z,9.67
2018-03-01T02:50:19.944Z,9.70
2018-03-01T02:52:47.889Z,13.53
2018-03-01T02:55:16.485Z,7.87
2018-03-01T02:57:44.124Z,9.07
2018-03-01T03:00:11.993Z,8.03
2018-03-01T03:02:39.963Z,9.17
2018-03-01T03:05:08.290Z,9.03
2018-03-01T03:07:37.009Z,10.57
2018-03-01T03:10:04.849Z,9.23
2018-03-01T03:12:32.595Z,10.00
2018-03-01T03:15:01.268Z,8.50
2018-03-01T03:17:29.577Z,8.83
2018-03-01T03:19:57.480Z,8.07
2018-03-01T03:22:25.868Z,9.30
2018-03-01T03:24:53.661Z,10.07
2018-03-01T03:27:21.710Z,8.33
2018-03-01T03:29:49.507Z,9.73
2018-03-01T03:32:17.566Z,8.27
2018-03-01T03:34:45.300Z,7.77
2018-03-01T03:37:12.975Z,7.93
2018-03-01T03:39:41.162Z,8.17
2018-03-01T03:42:09.655Z,9.50
2018-03-01T03:44:37.488Z,7.90
2018-03-01T03:47:05.152Z,8.07
2018-03-01T03:49:33.666Z,7.77
2018-03-01T03:52:02.312Z,8.50
2018-03-01T03:54:31.227Z,9.57
2018-03-01T03:56:59.289Z,8.23
2018-03-01T03:59:27.771Z,8.93
2018-03-01T04:01:55.579Z,8.57
2018-03-01T04:04:23.446Z,8.60
2018-03-01T04:06:52.247Z,8.93
2018-03-01T04:09:20.720Z,8.43
2018-03-01T04:11:48.986Z,8.67
2018-03-01T04:14:17.229Z,8.87
2018-03-01T04:16:44.876Z,8.20
2018-03-01T04:19:12.908Z,8.50
2018-03-01T04:21:41.797Z,11.07
2018-03-01T04:24:09.747Z,9.77
2018-03-01T04:26:39.984Z,9.33
2018-03-01T04:29:07.684Z,7.70
2018-03-01T04:31:36.136Z,8.90
2018-03-01T04:34:04.488Z,9.00
2018-03-01T04:36:33.581Z,8.10
2018-03-01T04:39:01.540Z,8.90
2018-03-01T04:41:29.206Z,8.23
2018-03-01T04:43:56.946Z,7.50
2018-03-01T04:46:25.496Z,8.43
2018-03-01T04:48:54.410Z,9.07
2018-03-01T04:51:22.064Z,9.17
2018-03-01T04:53:50.534Z,8.53
2018-03-01T04:56:19.080Z,8.57
2018-03-01T04:58:47.582Z,8.07
2018-03-01T05:01:16.469Z,8.30
2018-03-01T05:03:44.621Z,9.70
2018-03-01T05:06:12.499Z,8.47
2018-03-01T05:08:40.218Z,9.00
2018-03-01T05:11:07.997Z,8.00
2018-03-01T05:13:35.612Z,8.23
2018-03-01T05:16:03.279Z,9.57
2018-03-01T05:18:32.279Z,7.40
2018-03-01T05:21:01.258Z,8.17
2018-03-01T05:23:29.489Z,8.70
2018-03-01T05:25:57.674Z,8.60
2018-03-01T05:28:26.789Z,7.80
2018-03-01T05:30:54.686Z,8.80
2018-03-01T05:33:22.328Z,8.77
2018-03-01T05:35:51.208Z,8.30
2018-03-01T05:38:19.137Z,8.20
2018-03-01T05:40:47.512Z,7.60
2018-03-01T05:43:15.119Z,8.87
2018-03-01T05:45:43.065Z,8.23
2018-03-01T05:48:10.926Z,9.20
2018-03-01T05:50:39.269Z,8.97
2018-03-01T05:53:07.817Z,8.30
2018-03-01T05:55:35.562Z,8.50
2018-03-01T05:58:03.974Z,8.00
2018-03-01T06:00:32.207Z,8.27
2018-03-01T06:03:00.195Z,8.83
2018-03-01T06:05:27.909Z,9.63
2018-03-01T06:07:55.534Z,9.47
2018-03-01T06:10:23.265Z,8.93
2018-03-01T06:12:50.971Z,8.53
2018-03-01T06:15:19.539Z,8.13
2018-03-01T06:17:47.477Z,9.00
2018-03-01T06:20:15.145Z,7.60
2018-03-01T06:22:43.608Z,8.93
2018-03-01T06:25:11.399Z,7.93
2018-03-01T06:27:39.798Z,8.30
2018-03-01T06:30:07.725Z,8.17
2018-03-01T06:32:35.899Z,8.20
2018-03-01T06:35:04.070Z,7.87
2018-03-01T06:37:32.186Z,8.90
2018-03-01T06:39:59.935Z,7.87
2018-03-01T06:42:27.624Z,8.20
2018-03-01T06:44:56.337Z,7.83
2018-03-01T06:47:24.242Z,8.27
2018-03-01T06:49:51.993Z,8.70
2018-03-01T06:52:21.383Z,7.80
2018-03-01T06:54:49.273Z,7.87
2018-03-01T06:57:16.967Z,8.50
2018-03-01T06:59:45.386Z,8.30
2018-03-01T07:02:13.085Z,7.83
2018-03-01T07:04:41.649Z,9.60
2018-03-01T07:07:09.371Z,8.90
2018-03-01T07:09:37.729Z,9.10
2018-03-01T07:12:05.727Z,7.67
2018-03-01T07:14:34.781Z,8.40
2018-03-01T07:17:03.374Z,8.03
2018-03-01T07:19:31.333Z,9.53
2018-03-01T07:21:59.035Z,9.40
2018-03-01T07:24:26.643Z,7.93
2018-03-01T07:26:54.267Z,8.50
2018-03-01T07:29:22.085Z,8.10
2018-03-01T07:31:49.789Z,7.60
2018-03-01T07:34:17.433Z,7.90
2018-03-01T07:36:45.353Z,7.20
2018-03-01T07:39:13.358Z,7.13
2018-03-01T07:41:41.286Z,8.47
2018-03-01T07:44:09.030Z,10.60
2018-03-01T07:46:36.688Z,8.17
2018-03-01T07:49:04.435Z,8.57
2018-03-01T07:51:32.064Z,8.13
2018-03-01T07:53:59.780Z,7.37
2018-03-01T07:56:27.779Z,8.10
2018-03-01T07:58:56.235Z,8.00
2018-03-01T08:01:23.858Z,7.97
2018-03-01T08:03:51.988Z,7.50
2018-03-01T08:06:20.077Z,9.17
2018-03-01T08:08:47.837Z,8.30
2018-03-01T08:11:16.933Z,8.87
2018-03-01T08:13:44.894Z,8.20
2018-03-01T08:16:12.781Z,7.00
2018-03-01T08:18:40.836Z,7.87
2018-03-01T08:21:09.318Z,8.27
2018-03-01T08:23:37.627Z,8.10
2018-03-01T08:26:05.367Z,8.13
2018-03-01T08:28:34.037Z,8.67
2018-03-01T08:31:02.104Z,7.20
2018-03-01T08:33:29.984Z,8.00
2018-03-01T08:35:58.161Z,8.00
2018-03-01T08:38:25.925Z,7.50
2018-03-01T08:40:53.658Z,8.10
2018-03-01T08:43:21.359Z,6.77
2018-03-01T08:45:49.083Z,7.13
2018-03-01T08:48:16.644Z,7.63
2018-03-01T08:50:44.483Z,7.70
2018-03-01T08:53:12.519Z,7.63
2018-03-01T08:55:41.499Z,6.93
2018-03-01T08:58:09.121Z,7.10
2018-03-01T09:00:37.448Z,7.57
2018-03-01T09:03:05.611Z,8.03
2018-03-01T09:05:33.273Z,7.80
2018-03-01T09:08:01.327Z,7.30
2018-03-01T09:10:28.977Z,7.90
2018-03-01T09:12:56.703Z,7.43
2018-03-01T09:15:24.321Z,7.57
2018-03-01T09:17:52.436Z,7.70
2018-03-01T09:20:20.182Z,8.10
2018-03-01T09:22:47.907Z,8.07
2018-03-01T09:25:15.622Z,7.80
2018-03-01T09:27:43.780Z,10.20
2018-03-01T09:30:11.530Z,8.80
2018-03-01T09:32:39.158Z,7.70
2018-03-01T09:35:07.277Z,8.60
2018-03-01T09:37:35.736Z,10.60
2018-03-01T09:40:04.063Z,8.27
2018-03-01T09:42:31.937Z,11.10
2018-03-01T09:44:59.805Z,10.30
2018-03-01T09:47:27.734Z,14.73
2018-03-01T09:49:55.696Z,12.70
2018-03-01T09:52:23.618Z,12.50
2018-03-01T09:54:51.397Z,10.87
2018-03-01T09:57:19.756Z,13.00
2018-03-01T09:59:48.189Z,11.80
2018-03-01T10:02:16.267Z,13.10
2018-03-01T10:04:44.610Z,12.17
2018-03-01T10:07:13.040Z,11.23
2018-03-01T10:09:41.061Z,12.13
2018-03-01T10:12:09.047Z,10.83
2018-03-01T10:14:37.864Z,11.07
2018-03-01T10:17:05.604Z,11.20
2018-03-01T10:19:33.206Z,11.63
2018-03-01T10:22:02.082Z,12.10
2018-03-01T10:24:30.130Z,9.93
2018-03-01T10:26:57.897Z,8.93
2018-03-01T10:29:25.528Z,9.03
2018-03-01T10:31:53.101Z,8.93
2018-03-01T10:34:21.819Z,8.57
2018-03-01T10:36:49.397Z,9.67
2018-03-01T10:39:17.080Z,10.70
2018-03-01T10:41:44.935Z,9.83
2018-03-01T10:44:12.601Z,9.27
2018-03-01T10:46:40.931Z,8.40
2018-03-01T10:49:08.485Z,9.27
2018-03-01T10:51:36.216Z,9.00
2018-03-01T10:54:03.886Z,8.57
2018-03-01T10:56:31.667Z,8.70
2018-03-01T10:59:00.055Z,7.23
2018-03-01T11:01:28.021Z,10.43
2018-03-01T11:03:55.957Z,9.70
2018-03-01T11:06:23.759Z,9.83
2018-03-01T11:08:52.221Z,10.47
2018-03-01T11:11:19.895Z,8.00
2018-03-01T11:13:47.581Z,8.00
2018-03-01T11:16:16.212Z,7.60
2018-03-01T11:18:43.844Z,8.00
2018-03-01T11:21:11.933Z,8.60
2018-03-01T11:23:39.695Z,9.30
2018-03-01T11:26:07.298Z,9.07
2018-03-01T11:28:35.075Z,7.73
2018-03-01T11:31:03.422Z,8.40
2018-03-01T11:33:31.119Z,11.67
2018-03-01T11:35:58.697Z,7.87
2018-03-01T11:38:26.483Z,8.30
2018-03-01T11:40:55.919Z,7.27
2018-03-01T11:43:24.367Z,7.83
2018-03-01T11:45:51.971Z,11.00
2018-03-01T11:48:19.810Z,12.47
2018-03-01T11:50:47.424Z,15.50
2018-03-01T11:53:15.137Z,23.73
2018-03-01T11:55:43.085Z,12.03
2018-03-01T11:58:10.832Z,5.47
2018-03-01T12:00:38.530Z,8.33
2018-03-01T12:03:06.790Z,8.40
2018-03-01T12:05:34.183Z,9.10
2018-03-01T12:08:01.668Z,6.43
2018-03-01T12:10:29.164Z,8.07
2018-03-01T12:12:57.076Z,7.07
2018-03-01T12:15:24.686Z,7.73
2018-03-01T12:17:52.958Z,7.00
2018-03-01T12:20:21.267Z,5.57
2018-03-01T12:22:48.762Z,7.40
2018-03-01T12:25:16.295Z,7.03
2018-03-01T12:27:43.788Z,7.57
2018-03-01T12:30:11.449Z,8.00
2018-03-01T12:32:39.153Z,14.33
2018-03-01T12:35:07.339Z,7.37
2018-03-01T12:37:35.958Z,9.10
2018-03-01T12:40:03.821Z,8.90
2018-03-01T12:42:31.344Z,9.33
2018-03-01T12:44:59.539Z,9.00
2018-03-01T12:47:27.002Z,10.63
2018-03-01T12:49:54.881Z,9.43
2018-03-01T12:52:22.436Z,7.27
2018-03-01T12:54:49.854Z,10.03
2018-03-01T12:57:18.081Z,9.40
2018-03-01T12:59:45.584Z,7.63
2018-03-01T13:02:15.306Z,6.83
2018-03-01T13:04:42.832Z,8.03
2018-03-01T13:07:10.326Z,7.80
2018-03-01T13:09:37.886Z,8.00
2018-03-01T13:12:05.568Z,12.43
2018-03-01T13:14:33.236Z,10.83
2018-03-01T13:17:00.843Z,7.47
2018-03-01T13:19:29.092Z,8.80
2018-03-01T13:21:56.624Z,7.27
2018-03-01T13:24:24.230Z,7.43
2018-03-01T13:26:52.468Z,8.03
2018-03-01T13:29:19.997Z,9.33
2018-03-01T13:31:47.522Z,9.50
2018-03-01T13:34:15.454Z,10.23
2018-03-01T13:36:43.036Z,8.03
2018-03-01T13:39:10.523Z,7.77
2018-03-01T13:41:39.540Z,8.57
2018-03-01T13:44:07.113Z,8.60
2018-03-01T13:46:35.803Z,6.70
2018-03-01T13:49:04.097Z,9.67
2018-03-01T13:51:31.946Z,8.33
2018-03-01T13:53:59.454Z,8.03
2018-03-01T13:56:26.878Z,7.87
2018-03-01T13:58:54.346Z,8.07
2018-03-01T14:01:22.097Z,8.07
2018-03-01T14:03:49.576Z,12.23
2018-03-01T14:06:17.099Z,10.40
2018-03-01T14:08:44.500Z,9.80
2018-03-01T14:11:12.335Z,8.40
2018-03-01T14:13:39.944Z,7.50
2018-03-01T14:16:08.227Z,7.83
2018-03-01T14:18:35.725Z,11.13
2018-03-01T14:21:03.384Z,7.57
2018-03-01T14:23:30.999Z,8.80
2018-03-01T14:25:58.478Z,8.77
2018-03-01T14:28:26.401Z,8.80
2018-03-01T14:30:55.055Z,7.90
2018-03-01T14:33:22.646Z,7.63
2018-03-01T14:35:50.099Z,7.37
2018-03-01T14:38:17.946Z,9.03
2018-03-01T14:40:45.526Z,8.00
2018-03-01T14:43:13.041Z,9.13
2018-03-01T14:45:40.723Z,7.20
2018-03-01T14:48:08.496Z,8.10
2018-03-01T14:50:36.147Z,7.00
2018-03-01T14:53:03.703Z,9.03
2018-03-01T14:55:31.123Z,7.03
2018-03-01T14:57:59.356Z,9.03
2018-03-01T15:00:26.892Z,8.63
2018-03-01T15:02:54.360Z,9.13
2018-03-01T15:05:21.843Z,8.13
2018-03-01T15:07:49.274Z,7.57
2018-03-01T15:10:16.855Z,8.53
2018-03-01T15:12:44.592Z,10.50
2018-03-01T15:15:12.121Z,8.60
2018-03-01T15:17:40.278Z,11.83
2018-03-01T15:20:08.510Z,8.07
2018-03-01T15:22:36.354Z,8.70
2018-03-01T15:25:03.980Z,7.80
2018-03-01T15:27:32.175Z,7.57
2018-03-01T15:29:59.617Z,7.17
2018-03-01T15:32:27.859Z,8.67
2018-03-01T15:34:55.354Z,6.97
2018-03-01T15:37:23.262Z,13.03
2018-03-01T15:39:50.864Z,8.33
2018-03-01T15:42:18.403Z,7.60
2018-03-01T15:44:46.352Z,9.00
2018-03-01T15:47:13.884Z,8.60
2018-03-01T15:49:42.492Z,8.13
2018-03-01T15:52:10.769Z,8.57
2018-03-01T15:54:38.251Z,9.33
2018-03-01T15:57:05.765Z,9.30
2018-03-01T15:59:33.195Z,9.73
2018-03-01T16:02:00.700Z,10.53
2018-03-01T16:04:28.221Z,7.83
2018-03-01T16:06:55.996Z,9.97
2018-03-01T16:09:23.687Z,9.57
2018-03-01T16:11:51.518Z,8.17
2018-03-01T16:14:20.279Z,8.60
2018-03-01T16:16:48.212Z,8.77
2018-03-01T16:19:15.708Z,8.80
2018-03-01T16:21:43.606Z,8.57
2018-03-01T16:24:11.057Z,7.70
2018-03-01T16:26:39.301Z,10.40
2018-03-01T16:29:06.778Z,10.10
2018-03-01T16:31:34.384Z,8.90
2018-03-01T16:34:02.549Z,8.37
2018-03-01T16:36:31.039Z,9.63
2018-03-01T16:38:58.544Z,10.53
2018-03-01T16:41:26.796Z,9.27
2018-03-01T16:43:54.308Z,9.97
2018-03-01T16:46:22.009Z,9.80
2018-03-01T16:48:49.748Z,12.83
2018-03-01T16:51:17.521Z,7.60
2018-03-01T16:53:45.105Z,8.87
2018-03-01T16:56:12.540Z,10.73
2018-03-01T16:58:40.360Z,10.50
2018-03-01T17:01:07.766Z,11.93
2018-03-01T17:03:37.061Z,10.10
2018-03-01T17:06:04.576Z,12.10
2018-03-01T17:08:32.187Z,11.60
2018-03-01T17:10:59.945Z,11.50
2018-03-01T17:13:28.028Z,12.60
2018-03-01T17:15:55.590Z,12.47
2018-03-01T17:18:23.419Z,12.97
2018-03-01T17:20:50.910Z,11.67
2018-03-01T17:23:18.383Z,14.47
2018-03-01T17:25:45.830Z,13.93
2018-03-01T17:28:13.462Z,12.33
2018-03-01T17:30:41.013Z,12.13
2018-03-01T17:33:08.521Z,12.37
2018-03-01T17:35:36.099Z,12.23
2018-03-01T17:38:04.424Z,13.57
2018-03-01T17:40:32.001Z,13.47
2018-03-01T17:42:59.861Z,12.60
2018-03-01T17:45:27.379Z,14.63
2018-03-01T17:47:54.959Z,12.97
2018-03-01T17:50:22.555Z,14.37
2018-03-01T17:52:50.057Z,11.97
2018-03-01T17:55:17.880Z,12.90
2018-03-01T17:57:45.453Z,12.07
2018-03-01T18:00:12.891Z,13.83
2018-03-01T18:02:41.935Z,12.60
2018-03-01T18:05:10.160Z,12.77
2018-03-01T18:07:38.448Z,12.10
2018-03-01T18:10:06.102Z,10.87
2018-03-01T18:12:33.632Z,11.07
2018-03-01T18:15:01.204Z,12.20
2018-03-01T18:17:28.736Z,12.60
2018-03-01T18:19:56.304Z,10.40
2018-03-01T18:22:24.296Z,11.60
2018-03-01T18:24:52.973Z,10.57
2018-03-01T18:27:21.672Z,11.27
2018-03-01T18:29:49.294Z,10.70
2018-03-01T18:32:16.853Z,10.57
2018-03-01T18:34:44.488Z,10.87
2018-03-01T18:37:12.762Z,10.90
2018-03-01T18:39:40.241Z,10.73
2018-03-01T18:42:07.672Z,10.50
2018-03-01T18:44:35.131Z,9.77
2018-03-01T18:47:02.565Z,10.33
2018-03-01T18:49:30.076Z,10.20
2018-03-01T18:51:57.982Z,10.60
2018-03-01T18:54:25.544Z,9.67
2018-03-01T18:56:53.158Z,11.33
2018-03-01T18:59:22.042Z,8.90
2018-03-01T19:01:52.216Z,8.70
2018-03-01T19:04:20.301Z,9.53
2018-03-01T19:06:48.187Z,8.23
2018-03-01T19:09:15.664Z,9.20
2018-03-01T19:11:43.090Z,11.13
2018-03-01T19:14:10.899Z,11.63
2018-03-01T19:16:39.623Z,9.70
2018-03-01T19:19:07.115Z,11.17
2018-03-01T19:21:34.614Z,9.13
2018-03-01T19:24:02.616Z,9.10
2018-03-01T19:26:30.142Z,8.73
2018-03-01T19:28:57.715Z,8.43
2018-03-01T19:31:25.317Z,8.80
2018-03-01T19:33:53.158Z,8.50
2018-03-01T19:36:20.668Z,7.67
2018-03-01T19:38:49.300Z,8.70
2018-03-01T19:41:16.968Z,8.17
2018-03-01T19:43:44.838Z,7.83
2018-03-01T19:46:12.602Z,7.23
2018-03-01T19:48:41.141Z,7.47
2018-03-01T19:51:09.381Z,7.30
2018-03-01T19:53:36.867Z,7.53
2018-03-01T19:56:04.362Z,7.97
2018-03-01T19:58:31.829Z,7.30
2018-03-01T20:00:59.296Z,7.97
2018-03-01T20:03:26.840Z,7.77
2018-03-01T20:05:55.938Z,7.57
2018-03-01T20:08:24.832Z,11.63
2018-03-01T20:10:52.795Z,7.17
2018-03-01T20:13:20.659Z,6.33
2018-03-01T20:15:48.406Z,7.60
2018-03-01T20:18:16.305Z,7.03
2018-03-01T20:20:44.184Z,10.43
2018-03-01T20:23:11.829Z,6.33
2018-03-01T20:25:39.337Z,8.50
2018-03-01T20:28:06.903Z,6.67
2018-03-01T20:30:34.440Z,6.90
2018-03-01T20:33:01.919Z,7.03
2018-03-01T20:35:29.604Z,6.63
2018-03-01T20:37:57.860Z,7.03
2018-03-01T20:40:25.842Z,5.60
2018-03-01T20:42:53.357Z,6.47
2018-03-01T20:45:21.647Z,6.17
2018-03-01T20:47:49.831Z,6.93
2018-03-01T20:50:18.370Z,6.47
2018-03-01T20:52:46.197Z,5.33
2018-03-01T20:55:13.799Z,6.43
2018-03-01T20:57:41.548Z,6.40
2018-03-01T21:00:10.352Z,5.80
2018-03-01T21:02:38.402Z,6.30
2018-03-01T21:05:06.014Z,6.47
2018-03-01T21:07:33.941Z,9.33
2018-03-01T21:10:01.667Z,7.93
2018-03-01T21:12:29.897Z,5.83
2018-03-01T21:14:57.340Z,5.40
2018-03-01T21:17:24.769Z,4.93
2018-03-01T21:19:52.265Z,5.00
2018-03-01T21:22:20.219Z,5.07
2018-03-01T21:24:48.653Z,5.17
2018-03-01T21:27:16.864Z,8.67
2018-03-01T21:29:44.346Z,6.77
2018-03-01T21:32:11.848Z,4.83
2018-03-01T21:34:39.549Z,4.73
2018-03-01T21:37:08.434Z,4.87
2018-03-01T21:39:37.038Z,4.87
2018-03-01T21:42:04.958Z,5.37
2018-03-01T21:44:32.826Z,4.63
2018-03-01T21:47:00.447Z,5.37
2018-03-01T21:49:28.056Z,4.67
2018-03-01T21:51:55.750Z,7.30
2018-03-01T21:54:23.208Z,5.10
2018-03-01T21:56:50.731Z,4.43
2018-03-01T21:59:18.829Z,5.03
2018-03-01T22:01:46.683Z,4.37
2018-03-01T22:04:14.234Z,4.63
2018-03-01T22:06:41.667Z,4.20
2018-03-01T22:09:09.982Z,4.47
2018-03-01T22:11:37.873Z,5.30
2018-03-01T22:14:05.504Z,5.33
2018-03-01T22:16:33.397Z,4.20
2018-03-01T22:19:01.123Z,6.80
2018-03-01T22:21:28.756Z,3.93
2018-03-01T22:23:56.679Z,3.90
2018-03-01T22:26:24.359Z,5.00
2018-03-01T22:28:51.826Z,4.97
2018-03-01T22:31:19.667Z,4.60
2018-03-01T22:33:47.308Z,4.80
2018-03-01T22:36:14.818Z,4.90
2018-03-01T22:38:42.312Z,4.63
2018-03-01T22:41:10.816Z,6.37
2018-03-01T22:43:38.385Z,5.20
2018-03-01T22:46:06.462Z,4.80
2018-03-01T22:48:34.068Z,4.90
2018-03-01T22:51:02.300Z,5.03
2018-03-01T22:53:29.745Z,5.60
2018-03-01T22:55:57.519Z,4.90
2018-03-01T22:58:25.176Z,5.00
2018-03-01T23:00:52.713Z,5.90
2018-03-01T23:03:20.407Z,5.03
2018-03-01T23:05:48.836Z,4.27
2018-03-01T23:08:16.341Z,5.27
2018-03-01T23:10:43.803Z,4.37
2018-03-01T23:13:11.388Z,5.37
2018-03-01T23:15:39.135Z,4.53
2018-03-01T23:18:07.868Z,3.77
2018-03-01T23:20:35.872Z,4.80
2018-03-01T23:23:03.742Z,4.93
2018-03-01T23:25:31.690Z,4.97
2018-03-01T23:27:59.198Z,5.13
2018-03-01T23:30:27.639Z,5.97
2018-03-01T23:32:55.350Z,7.03
2018-03-01T23:35:22.949Z,7.60
2018-03-01T23:37:52.403Z,8.87
2018-03-01T23:40:20.966Z,10.70
2018-03-01T23:42:48.552Z,7.60
2018-03-01T23:45:17.122Z,9.73
2018-03-01T23:47:44.887Z,7.53
2018-03-01T23:50:12.870Z,8.00
2018-03-01T23:52:40.821Z,6.40
2018-03-01T23:55:08.776Z,7.40
2018-03-01T23:57:36.401Z,7.33
